createdAt,value
2018-08-28T00:01:47.828Z,9.33
2018-08-28T00:04:16.608Z,5.70
2018-08-28T00:06:45.619Z,4.80
2018-08-28T00:09:16.070Z,3.43
2018-08-28T00:11:44.876Z,3.27
2018-08-28T00:14:13.719Z,5.70
2018-08-28T00:16:42.520Z,3.63
2018-08-28T00:19:11.696Z,3.37
2018-08-28T00:21:40.711Z,4.80
2018-08-28T00:24:09.916Z,3.30
2018-08-28T00:26:39.213Z,10.37
2018-08-28T00:29:08.505Z,6.70
2018-08-28T00:31:37.408Z,4.03
2018-08-28T00:34:06.242Z,2.30
2018-08-28T00:36:35.546Z,7.33
2018-08-28T00:39:05.103Z,7.17
2018-08-28T00:41:33.895Z,4.37
2018-08-28T00:44:03.348Z,6.83
2018-08-28T00:46:32.240Z,4.70
2018-08-28T00:49:01.758Z,5.37
2018-08-28T00:51:31.138Z,8.60
2018-08-28T00:54:00.050Z,4.97
2018-08-28T00:56:29.227Z,6.93
2018-08-28T00:58:58.408Z,6.53
2018-08-28T01:01:27.697Z,9.70
2018-08-28T01:03:56.623Z,7.13
2018-08-28T01:06:25.801Z,9.00
2018-08-28T01:08:55.077Z,5.60
2018-08-28T01:11:24.424Z,3.27
2018-08-28T01:13:53.732Z,2.73
2018-08-28T01:16:23.053Z,4.57
2018-08-28T01:18:52.341Z,5.93
2018-08-28T01:21:21.662Z,10.27
2018-08-28T01:23:50.552Z,8.40
2018-08-28T01:26:19.925Z,5.70
2018-08-28T01:28:48.841Z,4.40
2018-08-28T01:31:18.012Z,3.63
2018-08-28T01:33:47.329Z,3.13
2018-08-28T01:36:16.638Z,2.33
2018-08-28T01:38:45.548Z,3.20
2018-08-28T01:41:14.732Z,4.40
2018-08-28T01:43:44.023Z,2.57
2018-08-28T01:46:12.938Z,6.97
2018-08-28T01:48:41.752Z,4.00
2018-08-28T01:51:10.582Z,2.23
2018-08-28T01:53:39.484Z,3.30
2018-08-28T01:56:08.685Z,3.37
2018-08-28T01:58:37.981Z,5.13
2018-08-28T02:01:06.855Z,3.07
2018-08-28T02:03:36.089Z,4.97
2018-08-28T02:06:05.359Z,4.97
2018-08-28T02:08:34.250Z,3.93
2018-08-28T02:11:03.407Z,3.80
2018-08-28T02:13:32.309Z,3.57
2018-08-28T02:16:01.277Z,3.90
2018-08-28T02:18:30.132Z,6.07
2018-08-28T02:20:59.281Z,4.60
2018-08-28T02:23:28.193Z,3.47
2018-08-28T02:25:57.396Z,1.73
2018-08-28T02:28:26.300Z,2.23
2018-08-28T02:30:55.183Z,3.10
2018-08-28T02:33:24.872Z,4.70
2018-08-28T02:35:54.087Z,4.43
2018-08-28T02:38:24.389Z,4.03
2018-08-28T02:40:53.562Z,6.47
2018-08-28T02:43:22.565Z,3.30
2018-08-28T02:45:51.371Z,5.73
2018-08-28T02:48:20.169Z,5.67
2018-08-28T02:50:49.612Z,2.73
2018-08-28T02:53:18.878Z,3.57
2018-08-28T02:55:47.791Z,3.53
2018-08-28T02:58:16.921Z,5.40
2018-08-28T03:00:45.892Z,3.10
2018-08-28T03:03:14.689Z,3.23
2018-08-28T03:05:43.892Z,2.30
2018-08-28T03:08:12.841Z,3.93
2018-08-28T03:10:42.104Z,4.60
2018-08-28T03:13:11.034Z,1.97
2018-08-28T03:15:39.936Z,3.83
2018-08-28T03:18:08.728Z,6.20
2018-08-28T03:20:37.544Z,3.10
2018-08-28T03:23:08.037Z,1.63
2018-08-28T03:25:37.273Z,3.33
2018-08-28T03:28:06.637Z,5.73
2018-08-28T03:30:35.554Z,1.30
2018-08-28T03:33:04.492Z,3.33
2018-08-28T03:35:33.272Z,2.63
2018-08-28T03:38:02.276Z,1.70
2018-08-28T03:40:31.060Z,1.67
2018-08-28T03:42:59.884Z,3.53
2018-08-28T03:45:29.165Z,4.13
2018-08-28T03:47:58.076Z,3.67
2018-08-28T03:50:26.868Z,2.37
2018-08-28T03:52:56.336Z,1.83
2018-08-28T03:55:25.609Z,3.27
2018-08-28T03:57:54.908Z,2.97
2018-08-28T04:00:24.162Z,3.10
2018-08-28T04:02:53.069Z,3.03
2018-08-28T04:05:22.091Z,4.37
2018-08-28T04:07:51.314Z,2.73
2018-08-28T04:10:20.613Z,2.57
2018-08-28T04:12:49.493Z,3.63
2018-08-28T04:15:18.324Z,3.93
2018-08-28T04:17:49.019Z,4.10
2018-08-28T04:20:19.447Z,4.50
2018-08-28T04:22:48.757Z,3.73
2018-08-28T04:25:18.568Z,3.20
2018-08-28T04:27:47.890Z,6.07
2018-08-28T04:30:16.759Z,5.73
2018-08-28T04:32:45.540Z,2.80
2018-08-28T04:35:14.369Z,5.10
2018-08-28T04:37:43.551Z,4.23
2018-08-28T04:40:12.824Z,5.03
2018-08-28T04:42:42.048Z,3.57
2018-08-28T04:45:11.354Z,4.17
2018-08-28T04:47:40.285Z,1.93
2018-08-28T04:50:09.092Z,5.37
2018-08-28T04:52:37.899Z,3.90
2018-08-28T04:55:06.713Z,3.73
2018-08-28T04:57:36.056Z,2.37
2018-08-28T05:00:05.769Z,3.07
2018-08-28T05:02:36.472Z,3.93
2018-08-28T05:05:06.952Z,4.37
2018-08-28T05:07:36.437Z,2.30
2018-08-28T05:10:05.982Z,3.43
2018-08-28T05:12:35.170Z,2.83
2018-08-28T05:15:04.581Z,2.33
2018-08-28T05:17:33.835Z,4.90
2018-08-28T05:20:02.757Z,2.20
2018-08-28T05:22:31.993Z,4.83
2018-08-28T05:25:01.274Z,4.87
2018-08-28T05:27:30.546Z,6.20
2018-08-28T05:29:59.439Z,6.37
2018-08-28T05:32:28.605Z,3.57
2018-08-28T05:34:57.660Z,4.07
2018-08-28T05:37:26.476Z,1.83
2018-08-28T05:39:55.268Z,5.00
2018-08-28T05:42:24.094Z,2.97
2018-08-28T05:44:53.304Z,2.90
2018-08-28T05:47:22.217Z,1.80
2018-08-28T05:49:51.040Z,5.53
2018-08-28T05:52:20.225Z,3.87
2018-08-28T05:54:49.580Z,8.67
2018-08-28T05:57:18.673Z,3.63
2018-08-28T05:59:47.588Z,4.53
2018-08-28T06:02:16.752Z,2.90
2018-08-28T06:04:45.652Z,2.90
2018-08-28T06:07:14.886Z,2.37
2018-08-28T06:09:46.012Z,4.43
2018-08-28T06:12:15.249Z,1.77
2018-08-28T06:14:44.559Z,2.97
2018-08-28T06:17:13.422Z,3.77
2018-08-28T06:19:42.606Z,6.70
2018-08-28T06:22:11.548Z,7.30
2018-08-28T06:24:40.773Z,3.17
2018-08-28T06:27:10.029Z,3.23
2018-08-28T06:29:39.782Z,3.97
2018-08-28T06:32:08.780Z,1.80
2018-08-28T06:34:37.591Z,2.43
2018-08-28T06:37:06.991Z,2.57
2018-08-28T06:39:35.942Z,3.57
2018-08-28T06:42:04.840Z,5.07
2018-08-28T06:44:34.102Z,2.20
2018-08-28T06:47:04.181Z,6.20
2018-08-28T06:49:33.328Z,3.90
2018-08-28T06:52:02.224Z,3.10
2018-08-28T06:54:31.082Z,2.57
2018-08-28T06:57:00.182Z,3.60
2018-08-28T06:59:29.001Z,1.63
2018-08-28T07:01:57.844Z,2.73
2018-08-28T07:04:27.112Z,3.63
2018-08-28T07:06:56.044Z,3.40
2018-08-28T07:09:25.312Z,4.00
2018-08-28T07:11:54.251Z,2.77
2018-08-28T07:14:23.123Z,2.70
2018-08-28T07:16:51.975Z,3.77
2018-08-28T07:19:32.306Z,5.17
2018-08-28T07:22:04.456Z,5.90
2018-08-28T07:24:33.436Z,1.30
2018-08-28T07:27:02.285Z,4.60
2018-08-28T07:29:31.088Z,2.20
2018-08-28T07:31:59.908Z,5.03
2018-08-28T07:34:28.760Z,3.67
2018-08-28T07:37:14.024Z,1.00
2018-08-28T07:51:22.875Z,4.70
2018-08-28T07:54:20.617Z,6.87
2018-08-28T07:56:59.053Z,4.63
2018-08-28T07:59:28.566Z,2.60
2018-08-28T08:01:57.516Z,3.93
2018-08-28T08:04:26.592Z,3.00
2018-08-28T08:06:55.419Z,3.30
2018-08-28T08:09:24.273Z,2.60
2018-08-28T08:11:53.787Z,2.03
2018-08-28T08:14:22.671Z,3.77
2018-08-28T08:16:51.508Z,4.37
2018-08-28T08:19:20.352Z,2.67
2018-08-28T08:21:49.598Z,2.90
2018-08-28T08:24:18.508Z,2.67
2018-08-28T08:26:47.761Z,4.60
2018-08-28T08:29:16.809Z,4.10
2018-08-28T08:31:46.033Z,6.90
2018-08-28T08:34:15.354Z,3.17
2018-08-28T08:36:44.305Z,5.70
2018-08-28T08:39:13.090Z,3.57
2018-08-28T08:41:42.244Z,3.00
2018-08-28T08:44:11.240Z,3.23
2018-08-28T08:46:40.408Z,3.53
2018-08-28T08:49:09.382Z,1.70
2018-08-28T08:51:38.572Z,3.87
2018-08-28T08:54:08.335Z,3.03
2018-08-28T08:56:37.617Z,2.37
2018-08-28T08:59:06.539Z,3.27
2018-08-28T09:01:35.443Z,1.97
2018-08-28T09:04:04.288Z,3.07
2018-08-28T09:06:33.509Z,4.67
2018-08-28T09:09:02.864Z,3.77
2018-08-28T09:11:31.812Z,1.80
2018-08-28T09:14:00.851Z,2.47
2018-08-28T09:16:29.661Z,2.03
2018-08-28T09:18:58.889Z,4.53
2018-08-28T09:21:27.836Z,1.60
2018-08-28T09:24:00.747Z,4.77
2018-08-28T09:26:29.613Z,4.50
2018-08-28T09:28:58.838Z,3.07
2018-08-28T09:31:27.779Z,3.90
2018-08-28T09:33:56.588Z,5.57
2018-08-28T09:36:25.470Z,2.90
2018-08-28T09:38:54.689Z,1.83
2018-08-28T09:41:23.579Z,3.50
2018-08-28T09:43:53.015Z,2.40
2018-08-28T09:46:21.909Z,2.53
2018-08-28T09:48:51.131Z,2.10
2018-08-28T09:51:20.100Z,4.20
2018-08-28T09:53:49.324Z,1.90
2018-08-28T09:56:18.282Z,3.43
2018-08-28T09:58:47.132Z,4.67
2018-08-28T10:01:21.689Z,1.97
2018-08-28T10:03:58.025Z,5.40
2018-08-28T10:06:27.008Z,2.80
2018-08-28T10:08:55.879Z,2.50
2018-08-28T10:11:24.685Z,4.93
2018-08-28T10:13:53.931Z,5.17
2018-08-28T10:16:22.912Z,1.90
2018-08-28T10:18:51.781Z,1.50
2018-08-28T10:21:20.829Z,3.03
2018-08-28T10:23:50.046Z,4.20
2018-08-28T10:26:18.992Z,3.17
2018-08-28T10:28:47.844Z,3.13
2018-08-28T10:31:17.011Z,5.37
2018-08-28T10:33:50.046Z,2.70
2018-08-28T10:36:18.958Z,5.10
2018-08-28T10:38:48.725Z,4.23
2018-08-28T10:41:17.966Z,3.40
2018-08-28T10:43:46.956Z,4.57
2018-08-28T10:46:16.212Z,3.87
2018-08-28T10:48:45.612Z,3.73
2018-08-28T10:51:15.735Z,3.77
2018-08-28T10:53:45.041Z,4.83
2018-08-28T10:56:13.980Z,3.27
2018-08-28T10:58:43.210Z,3.00
2018-08-28T11:01:12.073Z,4.53
2018-08-28T11:03:42.248Z,4.07
2018-08-28T11:06:11.145Z,3.30
2018-08-28T11:08:39.949Z,2.80
2018-08-28T11:11:09.452Z,4.33
2018-08-28T11:13:38.420Z,1.50
2018-08-28T11:16:07.336Z,2.70
2018-08-28T11:18:36.316Z,3.37
2018-08-28T11:21:05.209Z,2.17
2018-08-28T11:23:34.243Z,4.27
2018-08-28T11:26:03.152Z,2.07
2018-08-28T11:28:31.963Z,4.43
2018-08-28T11:31:01.175Z,2.07
2018-08-28T11:33:30.153Z,2.97
2018-08-28T11:35:58.967Z,4.50
2018-08-28T11:38:27.892Z,2.17
2018-08-28T11:40:56.600Z,3.43
2018-08-28T11:43:25.436Z,3.07
2018-08-28T11:45:54.307Z,5.27
2018-08-28T11:48:23.122Z,2.40
2018-08-28T11:50:52.335Z,2.70
2018-08-28T11:53:21.787Z,2.77
2018-08-28T11:55:50.451Z,3.97
2018-08-28T11:58:19.280Z,3.30
2018-08-28T12:00:48.511Z,1.73
2018-08-28T12:03:17.353Z,2.77
2018-08-28T12:05:46.228Z,2.23
2018-08-28T12:08:15.015Z,1.60
2018-08-28T12:10:43.911Z,4.73
2018-08-28T12:13:12.854Z,3.90
2018-08-28T12:15:41.623Z,2.93
2018-08-28T12:18:10.833Z,3.00
2018-08-28T12:20:40.570Z,2.20
2018-08-28T12:23:09.529Z,1.97
2018-08-28T12:25:38.340Z,3.80
2018-08-28T12:28:07.135Z,3.83
2018-08-28T12:30:36.269Z,4.33
2018-08-28T12:33:05.516Z,3.07
2018-08-28T12:35:34.400Z,2.03
2018-08-28T12:38:03.806Z,2.07
2018-08-28T12:40:33.133Z,3.87
2018-08-28T12:43:02.533Z,2.27
2018-08-28T12:45:31.486Z,2.57
2018-08-28T12:48:00.785Z,3.27
2018-08-28T12:50:29.717Z,3.00
2018-08-28T12:52:58.952Z,2.70
2018-08-28T12:55:27.910Z,2.80
2018-08-28T12:57:56.790Z,2.13
2018-08-28T13:00:28.145Z,1.83
2018-08-28T13:02:58.874Z,2.30
2018-08-28T13:05:28.099Z,1.83
2018-08-28T13:07:56.898Z,2.63
2018-08-28T13:10:25.844Z,3.47
2018-08-28T13:12:54.702Z,2.73
2018-08-28T13:15:23.520Z,2.50
2018-08-28T13:17:52.321Z,2.27
2018-08-28T13:20:21.648Z,3.40
2018-08-28T13:22:50.854Z,3.23
2018-08-28T13:25:19.853Z,2.63
2018-08-28T13:27:48.662Z,3.50
2018-08-28T13:30:17.894Z,4.20
2018-08-28T13:32:46.990Z,4.13
2018-08-28T13:35:15.897Z,6.47
2018-08-28T13:37:44.714Z,4.97
2018-08-28T13:40:13.539Z,3.00
2018-08-28T13:42:42.379Z,3.50
2018-08-28T13:45:11.609Z,3.70
2018-08-28T13:47:40.711Z,2.30
2018-08-28T13:50:09.605Z,4.63
2018-08-28T13:52:38.819Z,2.27
2018-08-28T13:55:08.107Z,5.10
2018-08-28T13:57:37.324Z,1.90
2018-08-28T14:00:06.328Z,4.63
2018-08-28T14:02:35.348Z,3.20
2018-08-28T14:05:05.111Z,3.30
2018-08-28T14:07:34.449Z,3.83
2018-08-28T14:10:04.234Z,3.23
2018-08-28T14:12:33.781Z,6.53
2018-08-28T14:15:03.388Z,6.63
2018-08-28T14:17:32.789Z,3.20
2018-08-28T14:20:01.832Z,10.67
2018-08-28T14:22:30.840Z,2.97
2018-08-28T14:24:59.800Z,5.50
2018-08-28T14:27:28.723Z,3.50
2018-08-28T14:29:57.592Z,2.73
2018-08-28T14:32:26.463Z,4.17
2018-08-28T14:34:55.288Z,3.40
2018-08-28T14:43:11.481Z,5.37
2018-08-28T14:48:35.399Z,5.47
2018-08-28T14:51:05.110Z,4.30
2018-08-28T14:53:38.093Z,7.97
2018-08-28T14:56:07.700Z,7.80
2018-08-28T14:58:37.904Z,5.27
2018-08-28T15:01:07.769Z,3.43
2018-08-28T15:03:37.506Z,2.63
2018-08-28T15:12:10.718Z,4.10
2018-08-28T15:14:55.696Z,4.40
2018-08-28T15:17:26.447Z,4.13
2018-08-28T15:19:55.949Z,3.30
2018-08-28T15:22:25.149Z,2.20
2018-08-28T15:24:55.414Z,2.00
2018-08-28T15:27:24.717Z,4.40
2018-08-28T15:29:53.780Z,11.60
2018-08-28T15:32:23.216Z,2.73
2018-08-28T15:34:52.761Z,3.13
2018-08-28T15:37:22.198Z,2.53
2018-08-28T15:45:41.151Z,2.57
2018-08-28T15:48:12.063Z,3.33
2018-08-28T15:50:46.457Z,3.43
2018-08-28T15:53:19.061Z,2.63
2018-08-28T15:55:51.025Z,3.03
2018-08-28T15:58:24.008Z,5.43
2018-08-28T16:00:58.123Z,3.47
2018-08-28T16:03:32.235Z,3.17
2018-08-28T16:06:05.427Z,4.90
2018-08-28T16:08:34.840Z,3.83
2018-08-28T16:11:03.755Z,2.63
2018-08-28T16:13:33.326Z,4.53
2018-08-28T16:16:02.562Z,2.57
2018-08-28T16:18:34.591Z,2.03
2018-08-28T16:21:06.253Z,2.90
2018-08-28T16:23:38.398Z,2.90
2018-08-28T16:26:07.380Z,3.23
2018-08-28T16:28:36.617Z,2.60
2018-08-28T16:31:05.533Z,2.57
2018-08-28T16:33:34.513Z,3.50
2018-08-28T16:36:03.376Z,2.47
2018-08-28T16:38:32.298Z,4.93
2018-08-28T16:41:01.208Z,3.30
2018-08-28T16:43:32.145Z,3.03
2018-08-28T16:48:57.407Z,5.03
2018-08-28T16:51:26.244Z,3.33
2018-08-28T16:54:02.588Z,7.03
2018-08-28T16:56:34.794Z,6.37
2018-08-28T16:59:04.269Z,3.97
2018-08-28T17:01:33.273Z,3.70
2018-08-28T17:04:02.077Z,5.73
2018-08-28T17:06:30.968Z,3.47
2018-08-28T17:08:59.813Z,4.90
2018-08-28T17:11:28.689Z,4.13
2018-08-28T17:13:57.980Z,4.07
2018-08-28T17:16:28.955Z,4.73
2018-08-28T17:19:01.739Z,7.93
2018-08-28T17:21:34.144Z,4.10
2018-08-28T17:24:06.485Z,3.90
2018-08-28T17:26:35.788Z,4.63
2018-08-28T17:29:06.057Z,5.70
2018-08-28T17:31:35.390Z,5.77
2018-08-28T17:34:04.269Z,6.33
2018-08-28T17:36:33.160Z,5.03
2018-08-28T17:39:02.462Z,6.30
2018-08-28T17:41:31.421Z,4.10
2018-08-28T17:44:00.631Z,4.83
2018-08-28T17:46:29.972Z,4.77
2018-08-28T17:48:59.355Z,4.77
2018-08-28T17:51:29.037Z,7.23
2018-08-28T17:53:57.900Z,7.83
2018-08-28T17:56:26.781Z,3.87
2018-08-28T17:58:55.600Z,4.63
2018-08-28T18:01:24.506Z,4.27
2018-08-28T18:03:53.745Z,3.97
2018-08-28T18:06:22.636Z,4.03
2018-08-28T18:08:51.807Z,3.87
2018-08-28T18:11:21.177Z,4.43
2018-08-28T18:13:50.110Z,4.90
2018-08-28T18:16:19.335Z,3.97
2018-08-28T18:18:48.248Z,3.30
2018-08-28T18:21:17.465Z,8.80
2018-08-28T18:23:46.388Z,9.60
2018-08-28T18:26:15.621Z,3.83
2018-08-28T18:28:45.446Z,5.27
2018-08-28T18:31:15.934Z,8.03
2018-08-28T18:33:45.182Z,22.00
2018-08-28T18:36:14.416Z,21.23
2018-08-28T18:38:43.686Z,14.93
2018-08-28T18:41:12.641Z,8.63
2018-08-28T18:43:41.437Z,4.80
2018-08-28T18:46:10.683Z,5.43
2018-08-28T18:48:40.209Z,4.87
2018-08-28T18:51:09.058Z,5.80
2018-08-28T18:53:38.243Z,6.83
2018-08-28T18:56:07.140Z,8.03
2018-08-28T18:58:36.020Z,8.90
2018-08-28T19:01:05.253Z,8.10
2018-08-28T19:03:34.164Z,4.97
2018-08-28T19:06:03.414Z,12.40
2018-08-28T19:08:32.338Z,6.57
2018-08-28T19:11:01.099Z,5.80
2018-08-28T19:13:30.281Z,5.70
2018-08-28T19:15:59.204Z,5.00
2018-08-28T19:18:28.092Z,6.07
2018-08-28T19:20:57.542Z,8.07
2018-08-28T19:23:26.758Z,9.27
2018-08-28T19:25:56.596Z,7.43
2018-08-28T19:28:25.446Z,8.73
2018-08-28T19:30:54.284Z,6.87
2018-08-28T19:33:23.133Z,8.70
2018-08-28T19:35:51.907Z,8.17
2018-08-28T19:38:20.774Z,4.63
2018-08-28T19:40:49.592Z,7.03
2018-08-28T19:43:18.372Z,10.10
2018-08-28T19:45:47.236Z,7.93
2018-08-28T19:48:16.033Z,9.70
2018-08-28T19:50:44.843Z,7.10
2018-08-28T19:53:13.645Z,5.53
2018-08-28T19:55:42.496Z,5.60
2018-08-28T19:58:11.343Z,7.40
2018-08-28T20:00:40.195Z,6.80
2018-08-28T20:03:09.308Z,7.10
2018-08-28T20:05:38.176Z,8.53
2018-08-28T20:08:07.941Z,7.77
2018-08-28T20:10:36.803Z,5.73
2018-08-28T20:13:05.673Z,6.57
2018-08-28T20:15:34.919Z,6.47
2018-08-28T20:18:03.867Z,6.20
2018-08-28T20:20:33.103Z,6.13
2018-08-28T20:23:02.050Z,6.30
2018-08-28T20:25:30.988Z,7.80
2018-08-28T20:27:59.836Z,7.87
2018-08-28T20:30:28.650Z,7.33
2018-08-28T20:32:57.540Z,8.27
2018-08-28T20:35:26.372Z,7.40
2018-08-28T20:37:55.200Z,7.33
2018-08-28T20:40:24.047Z,5.07
2018-08-28T20:42:52.849Z,12.10
2018-08-28T20:45:21.884Z,10.63
2018-08-28T20:47:50.661Z,8.40
2018-08-28T20:50:19.471Z,8.37
2018-08-28T20:52:48.986Z,11.70
2018-08-28T20:55:17.828Z,10.43
2018-08-28T20:57:46.700Z,9.67
2018-08-28T21:00:15.624Z,7.80
2018-08-28T21:02:44.415Z,6.27
2018-08-28T21:05:13.308Z,8.50
2018-08-28T21:07:42.148Z,10.23
2018-08-28T21:10:12.180Z,6.97
2018-08-28T21:12:41.021Z,6.50
2018-08-28T21:15:09.833Z,6.40
2018-08-28T21:17:38.715Z,7.13
2018-08-28T21:20:07.855Z,8.07
2018-08-28T21:22:37.072Z,7.47
2018-08-28T21:25:10.961Z,8.47
2018-08-28T21:33:30.376Z,9.20
2018-08-28T21:36:09.333Z,9.00
2018-08-28T21:41:32.997Z,6.80
2018-08-28T21:44:02.292Z,5.87
2018-08-28T21:46:31.589Z,5.17
2018-08-28T21:49:00.869Z,8.23
2018-08-28T21:51:30.308Z,7.47
2018-08-28T21:53:59.148Z,7.50
2018-08-28T21:56:27.988Z,7.50
2018-08-28T21:58:57.250Z,10.53
2018-08-28T22:01:26.962Z,9.57
2018-08-28T22:03:56.110Z,9.23
2018-08-28T22:06:30.238Z,9.60
2018-08-28T22:08:59.064Z,7.77
2018-08-28T22:11:28.354Z,8.20
2018-08-28T22:13:57.297Z,6.80
2018-08-28T22:16:26.521Z,11.70
2018-08-28T22:18:55.513Z,10.70
2018-08-28T22:21:24.724Z,5.87
2018-08-28T22:23:54.065Z,7.97
2018-08-28T22:26:23.310Z,7.87
2018-08-28T22:28:52.632Z,5.93
2018-08-28T22:31:21.946Z,7.20
2018-08-28T22:33:51.322Z,10.80
2018-08-28T22:36:20.240Z,5.90
2018-08-28T22:38:49.435Z,4.50
2018-08-28T22:41:18.778Z,5.63
2018-08-28T22:43:51.001Z,7.63
2018-08-28T22:46:21.861Z,4.07
2018-08-28T22:48:50.754Z,6.53
2018-08-28T22:51:19.571Z,4.00
2018-08-28T22:53:48.803Z,6.13
2018-08-28T22:56:18.090Z,5.43
2018-08-28T22:58:47.406Z,6.83
2018-08-28T23:01:16.717Z,8.30
2018-08-28T23:03:45.647Z,5.43
2018-08-28T23:06:14.522Z,5.97
2018-08-28T23:08:43.728Z,8.53
2018-08-28T23:11:12.590Z,5.93
2018-08-28T23:13:41.800Z,8.97
2018-08-28T23:16:10.712Z,7.57
2018-08-28T23:18:39.536Z,8.43
2018-08-28T23:21:08.763Z,8.00
2018-08-28T23:23:38.067Z,7.53
2018-08-28T23:26:06.957Z,4.23
2018-08-28T23:28:36.185Z,5.23
2018-08-28T23:31:05.117Z,10.67
2018-08-28T23:33:33.902Z,5.20
2018-08-28T23:36:02.768Z,5.40
2018-08-28T23:38:31.921Z,5.87
2018-08-28T23:41:00.820Z,6.53
2018-08-28T23:43:30.032Z,4.80
2018-08-28T23:45:58.941Z,6.37
2018-08-28T23:48:28.134Z,4.97
2018-08-28T23:50:57.422Z,7.07
2018-08-28T23:53:26.737Z,3.50
2018-08-28T23:55:55.609Z,6.67
2018-08-28T23:58:24.488Z,3.97
